sensor_id;sensor_type;location;lat;lon;timestamp;temperature;humidity
59977;DHT22;45837;51.076;3.578;2024-03-06T00:01:29;19.50;54.30
59977;DHT22;45837;51.076;3.578;2024-03-06T00:03:55;19.50;55.10
59977;DHT22;45837;51.076;3.578;2024-03-06T00:06:21;19.50;54.50
59977;DHT22;45837;51.076;3.578;2024-03-06T00:08:46;19.50;54.50
59977;DHT22;45837;51.076;3.578;2024-03-06T00:11:12;19.50;54.70
59977;DHT22;45837;51.076;3.578;2024-03-06T00:13:37;19.50;54.60
59977;DHT22;45837;51.076;3.578;2024-03-06T00:16:03;19.50;54.60
59977;DHT22;45837;51.076;3.578;2024-03-06T00:18:29;19.40;54.50
59977;DHT22;45837;51.076;3.578;2024-03-06T00:20:55;19.40;54.60
59977;DHT22;45837;51.076;3.578;2024-03-06T00:23:20;19.40;54.50
59977;DHT22;45837;51.076;3.578;2024-03-06T00:25:46;19.40;54.60
59977;DHT22;45837;51.076;3.578;2024-03-06T00:28:12;19.40;54.60
59977;DHT22;45837;51.076;3.578;2024-03-06T00:30:37;19.40;54.60
59977;DHT22;45837;51.076;3.578;2024-03-06T00:33:03;19.40;54.60
59977;DHT22;45837;51.076;3.578;2024-03-06T00:35:29;19.40;54.70
59977;DHT22;45837;51.076;3.578;2024-03-06T00:37:54;19.40;54.70
59977;DHT22;45837;51.076;3.578;2024-03-06T00:40:20;19.30;54.60
59977;DHT22;45837;51.076;3.578;2024-03-06T00:42:46;19.30;54.60
59977;DHT22;45837;51.076;3.578;2024-03-06T00:45:11;19.30;54.60
59977;DHT22;45837;51.076;3.578;2024-03-06T00:47:37;19.30;54.60
59977;DHT22;45837;51.076;3.578;2024-03-06T00:50:03;19.30;54.60
59977;DHT22;45837;51.076;3.578;2024-03-06T00:52:30;19.30;54.60
59977;DHT22;45837;51.076;3.578;2024-03-06T00:54:56;19.30;54.70
59977;DHT22;45837;51.076;3.578;2024-03-06T00:57:21;19.30;54.70
59977;DHT22;45837;51.076;3.578;2024-03-06T00:59:47;19.30;54.80
59977;DHT22;45837;51.076;3.578;2024-03-06T01:02:13;19.20;54.70
59977;DHT22;45837;51.076;3.578;2024-03-06T01:04:38;19.20;54.70
59977;DHT22;45837;51.076;3.578;2024-03-06T01:07:04;19.30;54.70
59977;DHT22;45837;51.076;3.578;2024-03-06T01:09:30;19.20;54.70
59977;DHT22;45837;51.076;3.578;2024-03-06T01:11:55;19.20;54.70
59977;DHT22;45837;51.076;3.578;2024-03-06T01:14:21;19.20;54.70
59977;DHT22;45837;51.076;3.578;2024-03-06T01:16:47;19.20;54.70
59977;DHT22;45837;51.076;3.578;2024-03-06T01:19:12;19.10;54.60
59977;DHT22;45837;51.076;3.578;2024-03-06T01:21:38;19.20;54.70
59977;DHT22;45837;51.076;3.578;2024-03-06T01:24:04;19.20;54.80
59977;DHT22;45837;51.076;3.578;2024-03-06T01:26:29;19.10;54.70
59977;DHT22;45837;51.076;3.578;2024-03-06T01:28:55;19.10;54.70
59977;DHT22;45837;51.076;3.578;2024-03-06T01:31:21;19.10;54.70
59977;DHT22;45837;51.076;3.578;2024-03-06T01:33:46;19.10;54.80
59977;DHT22;45837;51.076;3.578;2024-03-06T01:36:12;19.10;54.70
59977;DHT22;45837;51.076;3.578;2024-03-06T01:38:38;19.10;54.70
59977;DHT22;45837;51.076;3.578;2024-03-06T01:41:03;19.10;54.60
59977;DHT22;45837;51.076;3.578;2024-03-06T01:43:36;19.10;54.60
59977;DHT22;45837;51.076;3.578;2024-03-06T01:46:02;19.10;54.60
59977;DHT22;45837;51.076;3.578;2024-03-06T01:48:28;19.10;54.60
59977;DHT22;45837;51.076;3.578;2024-03-06T01:50:55;19.00;54.50
59977;DHT22;45837;51.076;3.578;2024-03-06T01:53:21;19.10;54.60
59977;DHT22;45837;51.076;3.578;2024-03-06T01:55:48;19.00;54.60
59977;DHT22;45837;51.076;3.578;2024-03-06T01:58:14;19.00;54.60
59977;DHT22;45837;51.076;3.578;2024-03-06T02:00:40;19.00;54.80
59977;DHT22;45837;51.076;3.578;2024-03-06T02:03:05;19.00;54.70
59977;DHT22;45837;51.076;3.578;2024-03-06T02:05:31;19.00;54.70
59977;DHT22;45837;51.076;3.578;2024-03-06T02:07:58;19.00;54.60
59977;DHT22;45837;51.076;3.578;2024-03-06T02:10:25;19.00;54.60
59977;DHT22;45837;51.076;3.578;2024-03-06T02:12:51;19.00;54.60
59977;DHT22;45837;51.076;3.578;2024-03-06T02:15:18;19.00;54.60
59977;DHT22;45837;51.076;3.578;2024-03-06T02:17:44;19.00;54.70
59977;DHT22;45837;51.076;3.578;2024-03-06T02:20:11;19.00;54.70
59977;DHT22;45837;51.076;3.578;2024-03-06T02:22:40;19.00;54.70
59977;DHT22;45837;51.076;3.578;2024-03-06T02:25:06;18.90;54.50
59977;DHT22;45837;51.076;3.578;2024-03-06T02:27:32;18.90;54.60
59977;DHT22;45837;51.076;3.578;2024-03-06T02:29:58;18.90;54.60
59977;DHT22;45837;51.076;3.578;2024-03-06T02:32:24;18.90;54.70
59977;DHT22;45837;51.076;3.578;2024-03-06T02:34:50;18.80;54.50
59977;DHT22;45837;51.076;3.578;2024-03-06T02:37:16;18.90;54.70
59977;DHT22;45837;51.076;3.578;2024-03-06T02:39:42;18.90;54.70
59977;DHT22;45837;51.076;3.578;2024-03-06T02:42:08;18.90;54.70
59977;DHT22;45837;51.076;3.578;2024-03-06T02:44:33;18.90;54.50
59977;DHT22;45837;51.076;3.578;2024-03-06T02:46:59;18.90;54.70
59977;DHT22;45837;51.076;3.578;2024-03-06T02:49:25;18.90;54.90
59977;DHT22;45837;51.076;3.578;2024-03-06T02:51:50;18.90;54.70
59977;DHT22;45837;51.076;3.578;2024-03-06T02:54:16;18.80;54.50
59977;DHT22;45837;51.076;3.578;2024-03-06T02:56:42;18.80;54.50
59977;DHT22;45837;51.076;3.578;2024-03-06T02:59:08;18.90;54.60
59977;DHT22;45837;51.076;3.578;2024-03-06T03:01:34;18.80;54.60
59977;DHT22;45837;51.076;3.578;2024-03-06T03:04:00;18.80;54.60
59977;DHT22;45837;51.076;3.578;2024-03-06T03:06:25;18.80;54.50
59977;DHT22;45837;51.076;3.578;2024-03-06T03:08:51;18.80;54.60
59977;DHT22;45837;51.076;3.578;2024-03-06T03:11:17;18.80;54.60
59977;DHT22;45837;51.076;3.578;2024-03-06T03:13:43;18.80;54.50
59977;DHT22;45837;51.076;3.578;2024-03-06T03:16:18;18.80;54.60
59977;DHT22;45837;51.076;3.578;2024-03-06T03:18:44;18.80;54.40
59977;DHT22;45837;51.076;3.578;2024-03-06T03:21:10;18.80;54.50
59977;DHT22;45837;51.076;3.578;2024-03-06T03:23:36;18.80;54.60
59977;DHT22;45837;51.076;3.578;2024-03-06T03:26:03;18.80;54.50
59977;DHT22;45837;51.076;3.578;2024-03-06T03:28:29;18.70;54.50
59977;DHT22;45837;51.076;3.578;2024-03-06T03:30:55;18.70;54.40
59977;DHT22;45837;51.076;3.578;2024-03-06T03:33:22;18.80;54.50
59977;DHT22;45837;51.076;3.578;2024-03-06T03:35:48;18.80;55.20
59977;DHT22;45837;51.076;3.578;2024-03-06T03:38:14;18.70;54.50
59977;DHT22;45837;51.076;3.578;2024-03-06T03:40:39;18.70;54.50
59977;DHT22;45837;51.076;3.578;2024-03-06T03:43:05;18.70;54.40
59977;DHT22;45837;51.076;3.578;2024-03-06T03:45:34;18.70;54.40
59977;DHT22;45837;51.076;3.578;2024-03-06T03:48:01;18.70;54.40
59977;DHT22;45837;51.076;3.578;2024-03-06T03:50:28;18.70;54.30
59977;DHT22;45837;51.076;3.578;2024-03-06T03:52:55;18.70;54.40
59977;DHT22;45837;51.076;3.578;2024-03-06T03:55:20;18.70;54.50
59977;DHT22;45837;51.076;3.578;2024-03-06T03:57:46;18.80;54.60
59977;DHT22;45837;51.076;3.578;2024-03-06T04:00:13;18.60;54.50
59977;DHT22;45837;51.076;3.578;2024-03-06T04:02:38;18.70;54.40
59977;DHT22;45837;51.076;3.578;2024-03-06T04:05:04;18.70;54.40
59977;DHT22;45837;51.076;3.578;2024-03-06T04:07:30;18.70;54.50
59977;DHT22;45837;51.076;3.578;2024-03-06T04:09:56;18.70;54.50
59977;DHT22;45837;51.076;3.578;2024-03-06T04:12:21;18.60;54.50
59977;DHT22;45837;51.076;3.578;2024-03-06T04:14:47;18.60;54.40
59977;DHT22;45837;51.076;3.578;2024-03-06T04:17:12;18.60;54.40
59977;DHT22;45837;51.076;3.578;2024-03-06T04:19:38;18.60;54.50
59977;DHT22;45837;51.076;3.578;2024-03-06T04:22:04;18.60;54.40
59977;DHT22;45837;51.076;3.578;2024-03-06T04:24:29;18.60;54.50
59977;DHT22;45837;51.076;3.578;2024-03-06T04:26:55;18.60;54.40
59977;DHT22;45837;51.076;3.578;2024-03-06T04:29:21;18.60;54.40
59977;DHT22;45837;51.076;3.578;2024-03-06T04:31:46;18.60;54.70
59977;DHT22;45837;51.076;3.578;2024-03-06T04:34:12;18.60;54.40
59977;DHT22;45837;51.076;3.578;2024-03-06T04:36:38;18.60;54.40
59977;DHT22;45837;51.076;3.578;2024-03-06T04:39:03;18.60;54.50
59977;DHT22;45837;51.076;3.578;2024-03-06T04:41:35;18.60;54.30
59977;DHT22;45837;51.076;3.578;2024-03-06T04:44:00;18.60;54.30
59977;DHT22;45837;51.076;3.578;2024-03-06T04:46:26;18.60;54.40
59977;DHT22;45837;51.076;3.578;2024-03-06T04:48:52;18.60;54.40
59977;DHT22;45837;51.076;3.578;2024-03-06T04:51:17;18.50;54.40
59977;DHT22;45837;51.076;3.578;2024-03-06T04:53:46;18.50;54.30
59977;DHT22;45837;51.076;3.578;2024-03-06T04:56:12;18.50;54.30
59977;DHT22;45837;51.076;3.578;2024-03-06T04:58:38;18.50;54.30
59977;DHT22;45837;51.076;3.578;2024-03-06T05:01:03;18.50;54.30
59977;DHT22;45837;51.076;3.578;2024-03-06T05:03:29;18.50;54.30
59977;DHT22;45837;51.076;3.578;2024-03-06T05:05:55;18.50;54.30
59977;DHT22;45837;51.076;3.578;2024-03-06T05:08:20;18.50;54.40
59977;DHT22;45837;51.076;3.578;2024-03-06T05:10:46;18.50;54.30
59977;DHT22;45837;51.076;3.578;2024-03-06T05:13:12;18.40;54.30
59977;DHT22;45837;51.076;3.578;2024-03-06T05:15:37;18.50;54.50
59977;DHT22;45837;51.076;3.578;2024-03-06T05:18:04;18.50;54.50
59977;DHT22;45837;51.076;3.578;2024-03-06T05:20:30;18.50;54.50
59977;DHT22;45837;51.076;3.578;2024-03-06T05:22:59;18.50;54.70
59977;DHT22;45837;51.076;3.578;2024-03-06T05:25:24;18.50;54.60
59977;DHT22;45837;51.076;3.578;2024-03-06T05:27:50;18.50;54.70
59977;DHT22;45837;51.076;3.578;2024-03-06T05:30:16;18.50;54.80
59977;DHT22;45837;51.076;3.578;2024-03-06T05:32:41;18.50;54.60
59977;DHT22;45837;51.076;3.578;2024-03-06T05:35:07;18.50;54.80
59977;DHT22;45837;51.076;3.578;2024-03-06T05:37:35;18.50;54.70
59977;DHT22;45837;51.076;3.578;2024-03-06T05:40:01;18.50;54.50
59977;DHT22;45837;51.076;3.578;2024-03-06T05:42:30;18.50;54.50
59977;DHT22;45837;51.076;3.578;2024-03-06T05:44:56;18.50;54.60
59977;DHT22;45837;51.076;3.578;2024-03-06T05:47:26;18.50;54.60
59977;DHT22;45837;51.076;3.578;2024-03-06T05:49:51;18.20;54.60
59977;DHT22;45837;51.076;3.578;2024-03-06T05:52:17;18.50;54.60
59977;DHT22;45837;51.076;3.578;2024-03-06T05:54:43;18.50;54.80
59977;DHT22;45837;51.076;3.578;2024-03-06T05:57:09;18.50;54.70
59977;DHT22;45837;51.076;3.578;2024-03-06T05:59:34;18.50;54.80
59977;DHT22;45837;51.076;3.578;2024-03-06T06:02:00;18.50;54.80
59977;DHT22;45837;51.076;3.578;2024-03-06T06:04:26;18.50;54.80
59977;DHT22;45837;51.076;3.578;2024-03-06T06:06:51;18.40;54.80
59977;DHT22;45837;51.076;3.578;2024-03-06T06:09:17;18.50;54.70
59977;DHT22;45837;51.076;3.578;2024-03-06T06:11:43;18.50;54.70
59977;DHT22;45837;51.076;3.578;2024-03-06T06:14:09;18.40;54.50
59977;DHT22;45837;51.076;3.578;2024-03-06T06:16:38;18.40;54.60
59977;DHT22;45837;51.076;3.578;2024-03-06T06:19:06;18.50;54.60
59977;DHT22;45837;51.076;3.578;2024-03-06T06:21:32;18.40;54.40
59977;DHT22;45837;51.076;3.578;2024-03-06T06:23:58;18.50;54.40
59977;DHT22;45837;51.076;3.578;2024-03-06T06:26:23;18.50;54.70
59977;DHT22;45837;51.076;3.578;2024-03-06T06:28:49;18.60;54.60
59977;DHT22;45837;51.076;3.578;2024-03-06T06:31:15;18.60;54.90
59977;DHT22;45837;51.076;3.578;2024-03-06T06:33:41;18.70;55.30
59977;DHT22;45837;51.076;3.578;2024-03-06T06:36:06;18.80;55.60
59977;DHT22;45837;51.076;3.578;2024-03-06T06:38:32;18.80;55.40
59977;DHT22;45837;51.076;3.578;2024-03-06T06:40:58;19.00;55.50
59977;DHT22;45837;51.076;3.578;2024-03-06T06:43:24;19.00;55.50
59977;DHT22;45837;51.076;3.578;2024-03-06T06:45:49;19.10;55.30
59977;DHT22;45837;51.076;3.578;2024-03-06T06:48:16;19.20;55.40
59977;DHT22;45837;51.076;3.578;2024-03-06T06:50:41;19.30;55.30
59977;DHT22;45837;51.076;3.578;2024-03-06T06:53:07;19.40;55.10
59977;DHT22;45837;51.076;3.578;2024-03-06T06:55:33;19.50;54.90
59977;DHT22;45837;51.076;3.578;2024-03-06T06:57:58;19.60;54.80
59977;DHT22;45837;51.076;3.578;2024-03-06T07:00:24;19.70;54.80
59977;DHT22;45837;51.076;3.578;2024-03-06T07:02:50;19.70;54.60
59977;DHT22;45837;51.076;3.578;2024-03-06T07:05:16;19.80;54.60
59977;DHT22;45837;51.076;3.578;2024-03-06T07:07:42;19.90;54.30
59977;DHT22;45837;51.076;3.578;2024-03-06T07:10:08;19.90;54.30
59977;DHT22;45837;51.076;3.578;2024-03-06T07:12:34;20.00;54.00
59977;DHT22;45837;51.076;3.578;2024-03-06T07:14:59;20.10;54.00
59977;DHT22;45837;51.076;3.578;2024-03-06T07:17:26;20.10;54.00
59977;DHT22;45837;51.076;3.578;2024-03-06T07:19:51;20.10;53.70
59977;DHT22;45837;51.076;3.578;2024-03-06T07:22:18;20.10;53.80
59977;DHT22;45837;51.076;3.578;2024-03-06T07:24:44;20.10;53.60
59977;DHT22;45837;51.076;3.578;2024-03-06T07:27:10;20.10;53.70
59977;DHT22;45837;51.076;3.578;2024-03-06T07:29:36;20.10;53.60
59977;DHT22;45837;51.076;3.578;2024-03-06T07:32:02;20.10;53.50
59977;DHT22;45837;51.076;3.578;2024-03-06T07:34:28;20.10;53.60
59977;DHT22;45837;51.076;3.578;2024-03-06T07:36:54;20.10;53.60
59977;DHT22;45837;51.076;3.578;2024-03-06T07:39:20;20.10;53.50
59977;DHT22;45837;51.076;3.578;2024-03-06T07:41:46;20.10;53.60
59977;DHT22;45837;51.076;3.578;2024-03-06T07:44:11;20.10;53.40
59977;DHT22;45837;51.076;3.578;2024-03-06T07:46:37;20.10;53.60
59977;DHT22;45837;51.076;3.578;2024-03-06T07:49:03;20.10;53.70
59977;DHT22;45837;51.076;3.578;2024-03-06T07:51:30;20.10;53.80
59977;DHT22;45837;51.076;3.578;2024-03-06T07:53:56;20.00;53.60
59977;DHT22;45837;51.076;3.578;2024-03-06T07:56:25;20.00;53.60
59977;DHT22;45837;51.076;3.578;2024-03-06T07:58:51;20.00;53.50
59977;DHT22;45837;51.076;3.578;2024-03-06T08:01:16;19.90;53.50
59977;DHT22;45837;51.076;3.578;2024-03-06T08:03:42;20.00;53.50
59977;DHT22;45837;51.076;3.578;2024-03-06T08:06:08;20.00;53.50
59977;DHT22;45837;51.076;3.578;2024-03-06T08:08:34;19.90;53.40
59977;DHT22;45837;51.076;3.578;2024-03-06T08:11:00;19.90;53.40
59977;DHT22;45837;51.076;3.578;2024-03-06T08:13:27;19.90;53.60
59977;DHT22;45837;51.076;3.578;2024-03-06T08:15:53;19.90;53.50
59977;DHT22;45837;51.076;3.578;2024-03-06T08:18:18;19.90;53.50
59977;DHT22;45837;51.076;3.578;2024-03-06T08:20:44;19.80;53.60
59977;DHT22;45837;51.076;3.578;2024-03-06T08:23:10;19.80;53.10
59977;DHT22;45837;51.076;3.578;2024-03-06T08:25:35;19.80;53.10
59977;DHT22;45837;51.076;3.578;2024-03-06T08:28:01;19.80;53.10
59977;DHT22;45837;51.076;3.578;2024-03-06T08:30:28;19.70;53.10
59977;DHT22;45837;51.076;3.578;2024-03-06T08:32:56;19.70;53.20
59977;DHT22;45837;51.076;3.578;2024-03-06T08:35:21;19.70;53.30
59977;DHT22;45837;51.076;3.578;2024-03-06T08:37:49;19.60;53.20
59977;DHT22;45837;51.076;3.578;2024-03-06T08:40:15;19.60;53.20
59977;DHT22;45837;51.076;3.578;2024-03-06T08:42:41;19.60;53.40
59977;DHT22;45837;51.076;3.578;2024-03-06T08:45:07;19.60;53.30
59977;DHT22;45837;51.076;3.578;2024-03-06T08:47:36;19.60;53.50
59977;DHT22;45837;51.076;3.578;2024-03-06T08:50:02;19.60;53.50
59977;DHT22;45837;51.076;3.578;2024-03-06T08:52:28;19.60;53.50
59977;DHT22;45837;51.076;3.578;2024-03-06T08:54:54;19.50;53.50
59977;DHT22;45837;51.076;3.578;2024-03-06T08:57:19;19.60;54.10
59977;DHT22;45837;51.076;3.578;2024-03-06T08:59:47;19.60;53.70
59977;DHT22;45837;51.076;3.578;2024-03-06T09:02:19;19.60;53.80
59977;DHT22;45837;51.076;3.578;2024-03-06T09:04:45;19.50;53.50
59977;DHT22;45837;51.076;3.578;2024-03-06T09:07:12;19.50;53.20
59977;DHT22;45837;51.076;3.578;2024-03-06T09:09:38;19.50;53.10
59977;DHT22;45837;51.076;3.578;2024-03-06T09:12:04;19.60;53.00
59977;DHT22;45837;51.076;3.578;2024-03-06T09:14:34;19.60;52.60
59977;DHT22;45837;51.076;3.578;2024-03-06T09:17:00;19.70;52.30
59977;DHT22;45837;51.076;3.578;2024-03-06T09:19:26;19.70;52.00
59977;DHT22;45837;51.076;3.578;2024-03-06T09:21:52;19.80;51.70
59977;DHT22;45837;51.076;3.578;2024-03-06T09:24:19;19.90;51.50
59977;DHT22;45837;51.076;3.578;2024-03-06T09:26:45;20.00;51.20
59977;DHT22;45837;51.076;3.578;2024-03-06T09:29:11;20.00;51.00
59977;DHT22;45837;51.076;3.578;2024-03-06T09:31:36;20.10;51.00
59977;DHT22;45837;51.076;3.578;2024-03-06T09:34:02;20.20;50.70
59977;DHT22;45837;51.076;3.578;2024-03-06T09:36:28;20.30;50.50
59977;DHT22;45837;51.076;3.578;2024-03-06T09:38:54;20.30;50.20
59977;DHT22;45837;51.076;3.578;2024-03-06T09:41:21;20.40;50.10
59977;DHT22;45837;51.076;3.578;2024-03-06T09:43:47;20.40;49.80
59977;DHT22;45837;51.076;3.578;2024-03-06T09:46:12;20.50;49.70
59977;DHT22;45837;51.076;3.578;2024-03-06T09:48:42;20.60;49.60
59977;DHT22;45837;51.076;3.578;2024-03-06T09:51:08;20.70;49.30
59977;DHT22;45837;51.076;3.578;2024-03-06T09:53:34;20.80;49.20
59977;DHT22;45837;51.076;3.578;2024-03-06T09:55:59;20.80;49.00
59977;DHT22;45837;51.076;3.578;2024-03-06T09:58:25;20.90;48.80
59977;DHT22;45837;51.076;3.578;2024-03-06T10:00:51;20.90;48.80
59977;DHT22;45837;51.076;3.578;2024-03-06T10:03:17;20.90;48.80
59977;DHT22;45837;51.076;3.578;2024-03-06T10:05:45;20.90;48.60
59977;DHT22;45837;51.076;3.578;2024-03-06T10:08:11;20.90;48.80
59977;DHT22;45837;51.076;3.578;2024-03-06T10:10:37;20.90;49.40
59977;DHT22;45837;51.076;3.578;2024-03-06T10:13:03;21.00;48.80
59977;DHT22;45837;51.076;3.578;2024-03-06T10:15:29;21.00;48.90
59977;DHT22;45837;51.076;3.578;2024-03-06T10:18:11;21.00;48.60
59977;DHT22;45837;51.076;3.578;2024-03-06T10:20:38;21.00;48.50
59977;DHT22;45837;51.076;3.578;2024-03-06T10:23:03;21.10;48.60
59977;DHT22;45837;51.076;3.578;2024-03-06T10:25:29;21.10;48.50
59977;DHT22;45837;51.076;3.578;2024-03-06T10:28:08;21.10;48.50
59977;DHT22;45837;51.076;3.578;2024-03-06T10:30:35;21.10;48.30
59977;DHT22;45837;51.076;3.578;2024-03-06T10:33:04;21.10;48.70
59977;DHT22;45837;51.076;3.578;2024-03-06T10:35:33;21.20;48.90
59977;DHT22;45837;51.076;3.578;2024-03-06T10:38:01;21.20;49.20
59977;DHT22;45837;51.076;3.578;2024-03-06T10:40:32;21.20;49.40
59977;DHT22;45837;51.076;3.578;2024-03-06T10:43:15;21.20;49.50
59977;DHT22;45837;51.076;3.578;2024-03-06T10:45:46;21.20;49.70
59977;DHT22;45837;51.076;3.578;2024-03-06T10:48:13;21.20;50.20
59977;DHT22;45837;51.076;3.578;2024-03-06T10:50:40;21.20;49.80
59977;DHT22;45837;51.076;3.578;2024-03-06T10:53:10;21.20;49.80
59977;DHT22;45837;51.076;3.578;2024-03-06T10:55:36;21.10;49.80
59977;DHT22;45837;51.076;3.578;2024-03-06T10:58:03;21.10;49.90
59977;DHT22;45837;51.076;3.578;2024-03-06T11:00:30;21.10;49.90
59977;DHT22;45837;51.076;3.578;2024-03-06T11:02:56;21.10;50.30
59977;DHT22;45837;51.076;3.578;2024-03-06T11:05:24;21.10;50.00
59977;DHT22;45837;51.076;3.578;2024-03-06T11:07:50;21.10;50.10
59977;DHT22;45837;51.076;3.578;2024-03-06T11:10:29;21.10;50.20
59977;DHT22;45837;51.076;3.578;2024-03-06T11:12:54;21.10;50.10
59977;DHT22;45837;51.076;3.578;2024-03-06T11:15:21;21.10;50.20
59977;DHT22;45837;51.076;3.578;2024-03-06T11:17:47;21.00;50.20
59977;DHT22;45837;51.076;3.578;2024-03-06T11:20:16;21.00;50.20
59977;DHT22;45837;51.076;3.578;2024-03-06T11:28:09;21.00;50.00
59977;DHT22;45837;51.076;3.578;2024-03-06T11:30:44;21.10;50.10
59977;DHT22;45837;51.076;3.578;2024-03-06T11:33:11;21.00;50.60
59977;DHT22;45837;51.076;3.578;2024-03-06T11:35:37;21.00;50.10
59977;DHT22;45837;51.076;3.578;2024-03-06T11:38:05;20.90;50.10
59977;DHT22;45837;51.076;3.578;2024-03-06T11:40:31;20.90;50.00
59977;DHT22;45837;51.076;3.578;2024-03-06T11:43:21;20.90;50.20
59977;DHT22;45837;51.076;3.578;2024-03-06T11:45:43;20.90;50.10
59977;DHT22;45837;51.076;3.578;2024-03-06T11:48:10;20.90;50.50
59977;DHT22;45837;51.076;3.578;2024-03-06T11:50:42;20.80;50.70
59977;DHT22;45837;51.076;3.578;2024-03-06T11:53:08;20.80;51.20
59977;DHT22;45837;51.076;3.578;2024-03-06T11:55:34;20.80;51.40
59977;DHT22;45837;51.076;3.578;2024-03-06T11:58:00;20.70;51.60
59977;DHT22;45837;51.076;3.578;2024-03-06T12:00:25;20.70;52.00
59977;DHT22;45837;51.076;3.578;2024-03-06T12:02:51;20.80;52.30
59977;DHT22;45837;51.076;3.578;2024-03-06T12:05:18;20.80;53.20
59977;DHT22;45837;51.076;3.578;2024-03-06T12:07:47;20.90;53.70
59977;DHT22;45837;51.076;3.578;2024-03-06T12:10:13;20.90;54.30
59977;DHT22;45837;51.076;3.578;2024-03-06T12:12:40;21.00;54.50
59977;DHT22;45837;51.076;3.578;2024-03-06T12:15:06;21.10;54.80
59977;DHT22;45837;51.076;3.578;2024-03-06T12:17:42;21.10;55.10
59977;DHT22;45837;51.076;3.578;2024-03-06T12:20:12;21.20;55.20
59977;DHT22;45837;51.076;3.578;2024-03-06T12:22:53;21.20;55.00
59977;DHT22;45837;51.076;3.578;2024-03-06T12:25:19;21.30;55.00
59977;DHT22;45837;51.076;3.578;2024-03-06T12:27:46;21.30;54.90
59977;DHT22;45837;51.076;3.578;2024-03-06T12:30:11;21.30;54.50
59977;DHT22;45837;51.076;3.578;2024-03-06T12:32:39;21.30;54.20
59977;DHT22;45837;51.076;3.578;2024-03-06T12:35:04;21.30;54.10
59977;DHT22;45837;51.076;3.578;2024-03-06T12:37:30;21.30;54.10
59977;DHT22;45837;51.076;3.578;2024-03-06T12:39:56;21.30;54.00
59977;DHT22;45837;51.076;3.578;2024-03-06T12:42:22;21.40;54.00
59977;DHT22;45837;51.076;3.578;2024-03-06T12:44:49;21.30;53.90
59977;DHT22;45837;51.076;3.578;2024-03-06T12:47:15;21.30;54.30
59977;DHT22;45837;51.076;3.578;2024-03-06T12:49:41;21.40;55.30
59977;DHT22;45837;51.076;3.578;2024-03-06T12:52:06;21.30;55.70
59977;DHT22;45837;51.076;3.578;2024-03-06T12:54:32;21.40;54.50
59977;DHT22;45837;51.076;3.578;2024-03-06T12:56:58;21.40;54.90
59977;DHT22;45837;51.076;3.578;2024-03-06T12:59:24;21.40;55.30
59977;DHT22;45837;51.076;3.578;2024-03-06T13:01:49;21.30;55.00
59977;DHT22;45837;51.076;3.578;2024-03-06T13:04:16;21.30;55.20
59977;DHT22;45837;51.076;3.578;2024-03-06T13:06:41;21.30;55.20
59977;DHT22;45837;51.076;3.578;2024-03-06T13:09:07;21.30;55.20
59977;DHT22;45837;51.076;3.578;2024-03-06T13:11:33;21.30;55.00
59977;DHT22;45837;51.076;3.578;2024-03-06T13:13:58;21.20;54.40
59977;DHT22;45837;51.076;3.578;2024-03-06T13:16:26;21.20;52.50
59977;DHT22;45837;51.076;3.578;2024-03-06T13:18:52;21.10;50.20
59977;DHT22;45837;51.076;3.578;2024-03-06T13:21:20;21.10;50.20
59977;DHT22;45837;51.076;3.578;2024-03-06T13:23:45;21.00;49.50
59977;DHT22;45837;51.076;3.578;2024-03-06T13:26:11;20.90;49.60
59977;DHT22;45837;51.076;3.578;2024-03-06T13:28:38;20.90;49.30
59977;DHT22;45837;51.076;3.578;2024-03-06T13:31:04;20.80;49.00
59977;DHT22;45837;51.076;3.578;2024-03-06T13:33:32;20.80;48.60
59977;DHT22;45837;51.076;3.578;2024-03-06T13:35:58;20.80;48.50
59977;DHT22;45837;51.076;3.578;2024-03-06T13:38:23;20.80;48.30
59977;DHT22;45837;51.076;3.578;2024-03-06T13:40:49;20.70;47.60
59977;DHT22;45837;51.076;3.578;2024-03-06T13:43:15;20.70;47.40
59977;DHT22;45837;51.076;3.578;2024-03-06T13:45:48;20.60;47.50
59977;DHT22;45837;51.076;3.578;2024-03-06T13:48:14;20.60;47.40
59977;DHT22;45837;51.076;3.578;2024-03-06T13:50:42;20.50;47.30
59977;DHT22;45837;51.076;3.578;2024-03-06T13:53:08;20.50;47.10
59977;DHT22;45837;51.076;3.578;2024-03-06T13:55:33;20.50;47.10
59977;DHT22;45837;51.076;3.578;2024-03-06T13:58:00;20.40;47.10
59977;DHT22;45837;51.076;3.578;2024-03-06T14:00:25;20.40;47.00
59977;DHT22;45837;51.076;3.578;2024-03-06T14:02:51;20.40;46.20
59977;DHT22;45837;51.076;3.578;2024-03-06T14:05:17;20.40;46.20
59977;DHT22;45837;51.076;3.578;2024-03-06T14:07:43;20.30;46.20
59977;DHT22;45837;51.076;3.578;2024-03-06T14:10:09;20.30;46.50
59977;DHT22;45837;51.076;3.578;2024-03-06T14:12:35;20.30;46.50
59977;DHT22;45837;51.076;3.578;2024-03-06T14:15:01;20.30;46.30
59977;DHT22;45837;51.076;3.578;2024-03-06T14:17:27;20.30;45.90
59977;DHT22;45837;51.076;3.578;2024-03-06T14:19:52;20.20;46.20
59977;DHT22;45837;51.076;3.578;2024-03-06T14:22:18;20.20;46.40
59977;DHT22;45837;51.076;3.578;2024-03-06T14:24:44;20.20;46.20
59977;DHT22;45837;51.076;3.578;2024-03-06T14:27:10;20.10;46.30
59977;DHT22;45837;51.076;3.578;2024-03-06T14:29:36;20.10;46.50
59977;DHT22;45837;51.076;3.578;2024-03-06T14:32:01;20.10;46.30
59977;DHT22;45837;51.076;3.578;2024-03-06T14:34:28;20.10;46.40
59977;DHT22;45837;51.076;3.578;2024-03-06T14:36:53;20.00;46.30
59977;DHT22;45837;51.076;3.578;2024-03-06T14:39:19;20.00;46.50
59977;DHT22;45837;51.076;3.578;2024-03-06T14:41:48;20.00;46.30
59977;DHT22;45837;51.076;3.578;2024-03-06T14:44:14;20.00;46.30
59977;DHT22;45837;51.076;3.578;2024-03-06T14:46:40;20.00;46.10
59977;DHT22;45837;51.076;3.578;2024-03-06T14:49:05;20.00;46.00
59977;DHT22;45837;51.076;3.578;2024-03-06T14:51:31;20.00;46.20
59977;DHT22;45837;51.076;3.578;2024-03-06T14:53:57;19.90;45.90
59977;DHT22;45837;51.076;3.578;2024-03-06T14:56:22;19.90;45.60
59977;DHT22;45837;51.076;3.578;2024-03-06T14:58:48;19.90;45.40
59977;DHT22;45837;51.076;3.578;2024-03-06T15:01:14;19.90;45.50
59977;DHT22;45837;51.076;3.578;2024-03-06T15:03:39;19.90;45.20
59977;DHT22;45837;51.076;3.578;2024-03-06T15:06:06;19.80;45.10
59977;DHT22;45837;51.076;3.578;2024-03-06T15:08:33;19.80;44.70
59977;DHT22;45837;51.076;3.578;2024-03-06T15:11:00;19.80;45.10
59977;DHT22;45837;51.076;3.578;2024-03-06T15:13:26;19.80;45.20
59977;DHT22;45837;51.076;3.578;2024-03-06T15:15:51;19.80;45.10
59977;DHT22;45837;51.076;3.578;2024-03-06T15:18:17;19.80;45.50
59977;DHT22;45837;51.076;3.578;2024-03-06T15:20:43;19.80;46.00
59977;DHT22;45837;51.076;3.578;2024-03-06T15:23:09;19.70;46.30
59977;DHT22;45837;51.076;3.578;2024-03-06T15:25:35;19.80;46.70
59977;DHT22;45837;51.076;3.578;2024-03-06T15:28:00;19.80;47.10
59977;DHT22;45837;51.076;3.578;2024-03-06T15:30:26;19.80;47.30